createdAt,value
2023-05-08T00:01:39.545Z,11.76
2023-05-08T00:04:27.235Z,11.78
2023-05-08T00:07:15.633Z,11.68
2023-05-08T00:10:03.744Z,11.62
2023-05-08T00:12:51.461Z,11.38
2023-05-08T00:15:39.259Z,11.37
2023-05-08T00:18:30.805Z,11.49
2023-05-08T00:21:18.580Z,11.38
2023-05-08T00:24:07.590Z,11.21
2023-05-08T00:26:55.341Z,11.45
2023-05-08T00:29:43.436Z,11.57
2023-05-08T00:32:31.212Z,11.63
2023-05-08T00:35:19.150Z,11.55
2023-05-08T00:38:06.872Z,11.46
2023-05-08T00:40:54.516Z,11.29
2023-05-08T00:43:42.304Z,11.57
2023-05-08T00:46:30.651Z,11.38
2023-05-08T00:49:19.225Z,11.38
2023-05-08T00:52:09.945Z,11.17
2023-05-08T00:54:58.001Z,11.17
2023-05-08T00:57:48.016Z,11.21
2023-05-08T01:00:37.724Z,11.20
2023-05-08T01:03:26.007Z,11.18
2023-05-08T01:06:13.753Z,11.17
2023-05-08T01:09:01.449Z,10.96
2023-05-08T01:12:09.300Z,11.13
2023-05-08T01:15:11.861Z,11.00
2023-05-08T01:18:20.574Z,11.10
2023-05-08T01:21:34.766Z,11.03
2023-05-08T01:24:32.483Z,11.00
2023-05-08T01:27:26.242Z,10.87
2023-05-08T01:30:41.339Z,10.88
2023-05-08T01:33:56.850Z,10.85
2023-05-08T01:37:07.651Z,10.88
2023-05-08T01:40:08.438Z,10.78
2023-05-08T01:43:19.386Z,10.69
2023-05-08T01:46:20.225Z,10.63
2023-05-08T01:49:26.171Z,10.53
2023-05-08T01:52:34.969Z,10.53
2023-05-08T01:55:41.730Z,10.49
2023-05-08T01:58:46.126Z,10.54
2023-05-08T02:01:35.130Z,10.37
2023-05-08T02:04:23.970Z,10.24
2023-05-08T02:07:28.212Z,9.95
2023-05-08T02:10:17.658Z,10.28
2023-05-08T02:13:09.162Z,9.80
2023-05-08T02:15:58.625Z,10.09
2023-05-08T02:18:51.512Z,10.04
2023-05-08T02:21:40.682Z,10.16
2023-05-08T02:24:30.500Z,10.00
2023-05-08T02:27:21.519Z,9.95
2023-05-08T02:30:12.005Z,9.99
2023-05-08T02:33:01.529Z,9.95
2023-05-08T02:35:51.063Z,9.93
2023-05-08T02:38:41.718Z,9.90
2023-05-08T02:41:32.997Z,9.89
2023-05-08T02:44:22.048Z,9.85
2023-05-08T02:47:24.142Z,9.75
2023-05-08T02:50:27.411Z,9.65
2023-05-08T02:53:25.048Z,9.62
2023-05-08T02:56:26.801Z,9.63
2023-05-08T02:59:24.186Z,9.06
2023-05-08T03:02:30.570Z,9.52
2023-05-08T03:05:21.049Z,9.43
2023-05-08T03:08:17.250Z,9.42
2023-05-08T03:11:09.584Z,9.41
2023-05-08T03:14:02.068Z,9.47
2023-05-08T03:16:54.243Z,9.37
2023-05-08T03:19:45.453Z,9.41
2023-05-08T03:22:35.933Z,9.37
2023-05-08T03:25:25.236Z,9.17
2023-05-08T03:28:15.038Z,9.37
2023-05-08T03:31:09.991Z,9.39
2023-05-08T03:33:59.849Z,9.47
2023-05-08T03:36:48.668Z,9.56
2023-05-08T03:39:36.756Z,9.53
2023-05-08T03:42:26.597Z,9.49
2023-05-08T03:45:16.497Z,9.62
2023-05-08T03:48:07.128Z,9.68
2023-05-08T03:51:02.317Z,9.96
2023-05-08T03:53:50.025Z,9.96
2023-05-08T03:56:38.887Z,10.04
2023-05-08T03:59:51.410Z,9.77
2023-05-08T04:02:56.864Z,10.25
2023-05-08T04:06:16.312Z,10.47
2023-05-08T04:09:22.320Z,10.82
2023-05-08T04:12:26.349Z,11.06
2023-05-08T04:15:23.358Z,11.23
2023-05-08T04:18:16.690Z,11.50
2023-05-08T04:21:10.504Z,11.41
2023-05-08T04:23:59.265Z,11.85
2023-05-08T04:26:49.172Z,11.97
2023-05-08T04:29:38.441Z,11.73
2023-05-08T04:32:19.941Z,12.22
2023-05-08T04:35:08.245Z,12.22
2023-05-08T04:37:56.470Z,12.47
2023-05-08T04:40:44.311Z,12.57
2023-05-08T04:43:32.810Z,12.65
2023-05-08T04:46:21.035Z,12.55
2023-05-08T04:49:09.360Z,12.58
2023-05-08T04:51:59.914Z,12.80
2023-05-08T04:54:47.575Z,12.81
2023-05-08T04:57:35.287Z,13.01
2023-05-08T05:00:23.045Z,13.22
2023-05-08T05:03:11.570Z,13.30
2023-05-08T05:06:03.017Z,13.34
2023-05-08T05:08:50.707Z,13.53
2023-05-08T05:11:38.490Z,13.69
2023-05-08T05:14:26.171Z,13.88
2023-05-08T05:17:14.034Z,14.21
2023-05-08T05:20:02.591Z,14.37
2023-05-08T05:22:50.560Z,14.47
2023-05-08T05:25:38.318Z,14.85
2023-05-08T05:28:26.376Z,14.78
2023-05-08T05:31:14.395Z,14.63
2023-05-08T05:34:04.125Z,14.80
2023-05-08T05:36:51.932Z,14.90
2023-05-08T05:39:40.072Z,15.30
2023-05-08T05:42:27.858Z,15.55
2023-05-08T05:45:16.364Z,15.66
2023-05-08T05:48:04.313Z,15.74
2023-05-08T05:50:52.948Z,15.92
2023-05-08T05:53:40.858Z,16.32
2023-05-08T05:56:28.567Z,15.95
2023-05-08T05:59:16.519Z,16.13
2023-05-08T06:02:04.441Z,16.87
2023-05-08T06:04:52.657Z,17.30
2023-05-08T06:07:40.413Z,17.60
2023-05-08T06:10:28.780Z,17.59
2023-05-08T06:13:16.620Z,17.92
2023-05-08T06:16:04.901Z,18.30
2023-05-08T06:18:52.818Z,18.18
2023-05-08T06:21:40.580Z,18.33
2023-05-08T06:24:28.542Z,19.15
2023-05-08T06:27:16.272Z,19.08
2023-05-08T06:30:08.065Z,19.58
2023-05-08T06:32:57.146Z,19.98
2023-05-08T06:35:48.626Z,20.10
2023-05-08T06:38:36.461Z,20.60
2023-05-08T06:41:24.293Z,20.55
2023-05-08T06:44:12.131Z,20.25
2023-05-08T06:47:00.239Z,19.80
2023-05-08T06:49:48.055Z,19.98
2023-05-08T06:52:36.015Z,20.70
2023-05-08T06:55:24.981Z,21.00
2023-05-08T06:58:15.298Z,21.31
2023-05-08T07:01:05.935Z,21.48
2023-05-08T07:03:53.787Z,21.34
2023-05-08T07:06:53.043Z,21.31
2023-05-08T07:09:41.525Z,21.60
2023-05-08T07:12:29.443Z,21.79
2023-05-08T07:15:25.629Z,21.93
2023-05-08T07:18:14.666Z,22.66
2023-05-08T07:21:05.443Z,22.43
2023-05-08T07:23:54.261Z,21.69
2023-05-08T07:26:43.264Z,21.85
2023-05-08T07:29:34.025Z,22.43
2023-05-08T07:32:21.927Z,21.98
2023-05-08T07:35:11.681Z,21.71
2023-05-08T07:37:59.559Z,21.95
2023-05-08T07:40:49.500Z,22.88
2023-05-08T07:43:37.555Z,23.24
2023-05-08T07:46:27.716Z,23.03
2023-05-08T07:49:16.820Z,23.04
2023-05-08T07:52:07.736Z,22.86
2023-05-08T07:54:57.363Z,22.96
2023-05-08T07:57:45.479Z,23.32
2023-05-08T08:00:34.661Z,22.84
2023-05-08T08:03:22.710Z,22.64
2023-05-08T08:06:10.580Z,22.82
2023-05-08T08:08:58.355Z,22.99
2023-05-08T08:11:46.339Z,22.44
2023-05-08T08:14:35.371Z,22.31
2023-05-08T08:17:24.067Z,22.42
2023-05-08T08:20:13.236Z,22.01
2023-05-08T08:23:01.257Z,22.15
2023-05-08T08:25:49.260Z,21.73
2023-05-08T08:28:37.061Z,21.72
2023-05-08T08:31:24.837Z,22.06
2023-05-08T08:34:12.672Z,22.46
2023-05-08T08:37:00.514Z,22.87
2023-05-08T08:39:51.277Z,22.70
2023-05-08T08:42:39.109Z,22.29
2023-05-08T08:45:26.900Z,22.62
2023-05-08T08:48:15.146Z,23.13
2023-05-08T08:51:07.067Z,23.35
2023-05-08T08:53:59.148Z,22.57
2023-05-08T08:57:08.255Z,22.62
2023-05-08T08:59:56.609Z,22.52
2023-05-08T09:02:44.515Z,22.10
2023-05-08T09:05:33.859Z,21.94
2023-05-08T09:08:21.809Z,21.16
2023-05-08T09:11:09.674Z,20.80
2023-05-08T09:13:58.378Z,20.87
2023-05-08T09:16:46.258Z,20.75
2023-05-08T09:19:34.983Z,20.54
2023-05-08T09:22:26.753Z,20.29
2023-05-08T09:25:14.635Z,20.40
2023-05-08T09:28:20.032Z,19.76
2023-05-08T09:31:07.876Z,19.90
2023-05-08T09:33:55.856Z,19.68
2023-05-08T09:36:43.732Z,19.83
2023-05-08T09:39:31.460Z,19.54
2023-05-08T09:42:19.305Z,19.13
2023-05-08T09:45:07.778Z,19.16
2023-05-08T09:51:20.061Z,19.27
2023-05-08T09:54:18.269Z,19.67
2023-05-08T09:57:13.183Z,19.52
2023-05-08T10:00:13.271Z,19.39
2023-05-08T10:03:14.234Z,19.37
2023-05-08T10:06:16.039Z,19.33
2023-05-08T10:09:08.502Z,19.56
2023-05-08T10:11:56.486Z,19.63
2023-05-08T10:14:46.824Z,19.73
2023-05-08T10:17:59.658Z,20.08
2023-05-08T10:21:06.836Z,20.14
2023-05-08T10:23:58.471Z,20.50
2023-05-08T10:27:20.834Z,20.49
2023-05-08T10:30:13.548Z,20.84
2023-05-08T10:33:31.833Z,21.41
2023-05-08T10:36:32.687Z,21.29
2023-05-08T10:39:21.374Z,21.64
2023-05-08T10:42:09.550Z,22.25
2023-05-08T10:48:59.369Z,21.79
2023-05-08T10:52:24.385Z,21.74
2023-05-08T10:55:46.359Z,22.24
2023-05-08T10:58:36.187Z,22.16
2023-05-08T11:01:24.421Z,21.52
2023-05-08T11:04:23.448Z,21.73
2023-05-08T11:07:11.736Z,21.13
2023-05-08T11:10:13.384Z,21.15
2023-05-08T11:13:02.025Z,20.94
2023-05-08T11:15:52.536Z,20.67
2023-05-08T11:19:29.477Z,20.44
2023-05-08T11:22:19.956Z,20.17
2023-05-08T11:25:10.371Z,20.31
2023-05-08T11:28:18.399Z,20.69
2023-05-08T11:31:09.431Z,21.01
2023-05-08T11:33:57.215Z,21.41
2023-05-08T11:37:02.486Z,21.33
2023-05-08T11:39:51.017Z,22.00
2023-05-08T11:42:38.915Z,21.87
2023-05-08T11:45:30.049Z,21.45
2023-05-08T11:48:20.485Z,20.83
2023-05-08T11:51:09.743Z,21.31
2023-05-08T11:53:57.744Z,21.54
2023-05-08T11:56:53.736Z,21.39
2023-05-08T11:59:43.740Z,21.49
2023-05-08T12:02:42.329Z,21.96
2023-05-08T12:05:32.870Z,22.11
2023-05-08T12:08:20.507Z,21.16
2023-05-08T12:11:08.210Z,21.26
2023-05-08T12:13:56.220Z,21.58
2023-05-08T12:16:44.018Z,21.52
2023-05-08T12:19:31.731Z,21.37
2023-05-08T12:22:19.573Z,20.35
2023-05-08T12:25:09.379Z,20.48
2023-05-08T12:27:57.687Z,20.57
2023-05-08T12:30:45.386Z,20.07
2023-05-08T12:33:34.597Z,19.93
2023-05-08T12:36:22.306Z,19.58
2023-05-08T12:39:18.648Z,19.53
2023-05-08T12:42:08.623Z,19.43
2023-05-08T12:44:57.932Z,18.86
2023-05-08T12:47:47.545Z,19.22
2023-05-08T12:50:43.208Z,19.25
2023-05-08T12:53:33.127Z,19.43
2023-05-08T12:56:22.725Z,18.91
2023-05-08T12:59:10.527Z,18.81
2023-05-08T13:01:58.278Z,18.73
2023-05-08T13:04:46.309Z,18.18
2023-05-08T13:07:34.916Z,18.37
2023-05-08T13:10:24.422Z,18.04
2023-05-08T13:13:20.925Z,17.92
2023-05-08T13:16:08.888Z,17.58
2023-05-08T13:18:56.878Z,17.27
2023-05-08T13:21:47.879Z,17.39
2023-05-08T13:24:38.208Z,16.88
2023-05-08T13:27:26.026Z,17.16
2023-05-08T13:30:15.754Z,16.92
2023-05-08T13:33:04.425Z,16.78
2023-05-08T13:35:52.451Z,16.76
2023-05-08T13:38:40.128Z,16.72
2023-05-08T13:41:27.759Z,16.83
2023-05-08T13:44:15.506Z,16.44
2023-05-08T13:47:03.344Z,16.15
2023-05-08T13:49:51.117Z,16.16
2023-05-08T13:52:39.972Z,16.36
2023-05-08T13:55:27.748Z,16.31
2023-05-08T13:58:15.664Z,16.03
2023-05-08T14:01:13.866Z,16.01
2023-05-08T14:04:13.120Z,15.94
2023-05-08T14:07:05.641Z,15.74
2023-05-08T14:09:53.561Z,15.95
2023-05-08T14:12:41.311Z,16.12
2023-05-08T14:15:36.900Z,16.16
2023-05-08T14:18:28.357Z,16.12
2023-05-08T14:21:16.177Z,16.09
2023-05-08T14:24:09.245Z,16.10
2023-05-08T14:26:57.153Z,16.13
2023-05-08T14:29:44.752Z,15.90
2023-05-08T14:32:37.324Z,15.91
2023-05-08T14:35:25.041Z,15.95
2023-05-08T14:38:15.588Z,15.97
2023-05-08T14:41:04.874Z,15.93
2023-05-08T14:43:52.844Z,15.53
2023-05-08T14:46:40.686Z,16.02
2023-05-08T14:49:37.394Z,16.06
2023-05-08T14:52:26.981Z,16.00
2023-05-08T14:55:21.016Z,16.07
2023-05-08T14:58:09.057Z,15.93
2023-05-08T15:00:56.749Z,15.91
2023-05-08T15:03:47.522Z,15.81
2023-05-08T15:06:40.424Z,15.93
2023-05-08T15:09:28.113Z,15.93
2023-05-08T15:12:15.736Z,15.91
2023-05-08T15:15:06.547Z,15.72
2023-05-08T15:17:54.258Z,15.75
2023-05-08T15:20:42.151Z,15.74
2023-05-08T15:23:29.995Z,15.88
2023-05-08T15:26:18.119Z,15.79
2023-05-08T15:29:08.199Z,15.81
2023-05-08T15:31:56.212Z,15.71
2023-05-08T15:34:44.993Z,15.74
2023-05-08T15:37:32.769Z,15.76
2023-05-08T15:40:20.684Z,15.64
2023-05-08T15:43:08.639Z,15.57
2023-05-08T15:45:58.039Z,15.47
2023-05-08T15:48:45.821Z,15.18
2023-05-08T15:51:33.524Z,15.27
2023-05-08T15:54:21.423Z,15.36
2023-05-08T15:57:09.161Z,15.15
2023-05-08T15:59:56.821Z,15.15
2023-05-08T16:02:44.977Z,15.25
2023-05-08T16:05:32.788Z,15.18
2023-05-08T16:08:20.515Z,15.20
2023-05-08T16:11:08.484Z,15.03
2023-05-08T16:13:56.310Z,14.99
2023-05-08T16:16:46.562Z,14.75
2023-05-08T16:19:40.684Z,14.86
2023-05-08T16:22:28.518Z,14.90
2023-05-08T16:25:16.376Z,14.84
2023-05-08T16:28:04.166Z,14.67
2023-05-08T16:30:54.791Z,14.60
2023-05-08T16:33:42.578Z,14.58
2023-05-08T16:36:31.838Z,14.53
2023-05-08T16:39:19.572Z,14.52
2023-05-08T16:42:07.778Z,14.42
2023-05-08T16:44:56.735Z,14.29
2023-05-08T16:47:44.404Z,14.03
2023-05-08T16:50:32.359Z,14.15
2023-05-08T16:53:20.055Z,14.05
2023-05-08T16:56:08.369Z,14.03
2023-05-08T16:59:09.492Z,14.06
2023-05-08T17:02:03.024Z,13.95
2023-05-08T17:04:51.082Z,13.92
2023-05-08T17:07:40.047Z,13.98
2023-05-08T17:10:30.204Z,13.94
2023-05-08T17:13:18.097Z,13.81
2023-05-08T17:16:06.970Z,13.69
2023-05-08T17:18:54.607Z,13.85
2023-05-08T17:21:42.239Z,13.81
2023-05-08T17:24:30.783Z,13.66
2023-05-08T17:27:19.581Z,13.70
2023-05-08T17:30:08.952Z,13.58
2023-05-08T17:32:56.715Z,13.54
2023-05-08T17:35:45.546Z,13.49
2023-05-08T17:38:35.424Z,13.40
2023-05-08T17:41:23.312Z,13.36
2023-05-08T17:44:11.109Z,13.30
2023-05-08T17:46:58.830Z,13.23
2023-05-08T17:49:46.656Z,13.23
2023-05-08T17:52:35.207Z,13.28
2023-05-08T17:55:25.856Z,13.04
2023-05-08T17:58:13.535Z,13.08
2023-05-08T18:01:03.654Z,12.88
2023-05-08T18:03:53.428Z,12.76
2023-05-08T18:06:47.604Z,12.95
2023-05-08T18:09:37.667Z,12.66
2023-05-08T18:12:25.405Z,12.84
2023-05-08T18:15:13.460Z,12.92
2023-05-08T18:18:01.310Z,12.91
2023-05-08T18:20:51.759Z,12.98
2023-05-08T18:23:39.686Z,12.84
2023-05-08T18:26:27.516Z,12.70
2023-05-08T18:29:15.518Z,12.94
2023-05-08T18:32:03.364Z,12.88
2023-05-08T18:34:51.094Z,12.78
2023-05-08T18:37:38.871Z,12.81
2023-05-08T18:40:26.542Z,12.46
2023-05-08T18:43:14.341Z,12.72
2023-05-08T18:46:14.704Z,12.52
2023-05-08T18:49:02.381Z,12.58
2023-05-08T18:51:50.047Z,12.61
2023-05-08T18:54:37.715Z,12.57
2023-05-08T18:57:25.605Z,12.30
2023-05-08T19:00:13.986Z,12.40
2023-05-08T19:03:01.945Z,12.29
2023-05-08T19:05:51.483Z,12.47
2023-05-08T19:08:39.250Z,12.43
2023-05-08T19:11:27.139Z,12.38
2023-05-08T19:14:15.026Z,12.44
2023-05-08T19:17:02.758Z,12.38
2023-05-08T19:19:53.805Z,12.40
2023-05-08T19:22:41.458Z,12.49
2023-05-08T19:25:29.133Z,12.25
2023-05-08T19:28:16.823Z,12.22
2023-05-08T19:31:04.618Z,12.38
2023-05-08T19:33:52.328Z,12.26
2023-05-08T19:36:40.064Z,12.32
2023-05-08T19:39:27.790Z,12.34
2023-05-08T19:42:15.629Z,12.39
2023-05-08T19:45:03.482Z,12.41
2023-05-08T19:47:51.434Z,12.49
2023-05-08T19:50:39.132Z,12.31
2023-05-08T19:53:26.856Z,12.39
2023-05-08T19:56:14.548Z,12.51
2023-05-08T19:59:02.325Z,12.53
2023-05-08T20:01:54.116Z,12.43
2023-05-08T20:05:07.917Z,12.25
2023-05-08T20:07:54.226Z,12.45
2023-05-08T20:10:42.118Z,12.38
2023-05-08T20:13:30.162Z,12.39
2023-05-08T20:16:17.877Z,12.42
2023-05-08T20:19:05.612Z,12.34
2023-05-08T20:21:53.274Z,12.26
2023-05-08T20:24:40.996Z,12.16
2023-05-08T20:27:28.787Z,12.21
2023-05-08T20:30:31.411Z,12.12
2023-05-08T20:33:19.574Z,12.19
2023-05-08T20:36:07.344Z,12.20
2023-05-08T20:38:55.069Z,12.07
2023-05-08T20:41:42.970Z,11.94
2023-05-08T20:44:30.657Z,12.04
2023-05-08T20:47:18.445Z,11.95
2023-05-08T20:50:06.964Z,11.95
2023-05-08T20:52:54.862Z,11.92
2023-05-08T20:55:51.479Z,11.75
2023-05-08T20:58:44.803Z,12.01
2023-05-08T21:01:33.617Z,12.00
2023-05-08T21:04:21.443Z,11.94
2023-05-08T21:07:11.821Z,11.93
2023-05-08T21:10:00.172Z,12.04
2023-05-08T21:12:47.844Z,11.95
2023-05-08T21:15:35.649Z,11.94
2023-05-08T21:18:23.436Z,11.92
2023-05-08T21:21:22.879Z,11.90
2023-05-08T21:24:10.575Z,11.84
2023-05-08T21:26:59.989Z,11.67
2023-05-08T21:29:47.611Z,11.80
2023-05-08T21:32:35.697Z,11.70
2023-05-08T21:35:23.553Z,11.60
2023-05-08T21:38:14.352Z,11.64
2023-05-08T21:41:07.650Z,11.83
2023-05-08T21:43:55.857Z,11.63
2023-05-08T21:46:43.564Z,11.69
2023-05-08T21:49:31.462Z,11.47
2023-05-08T21:52:22.449Z,11.84
2023-05-08T21:55:10.374Z,11.61
2023-05-08T21:57:58.049Z,11.43
2023-05-08T22:00:46.358Z,11.65
2023-05-08T22:03:34.162Z,11.58
2023-05-08T22:06:21.895Z,11.63
2023-05-08T22:09:09.656Z,11.59
2023-05-08T22:11:59.830Z,11.58
2023-05-08T22:14:47.536Z,11.43
2023-05-08T22:17:35.679Z,11.44
2023-05-08T22:20:23.614Z,11.26
2023-05-08T22:23:11.292Z,11.54
2023-05-08T22:25:58.935Z,11.61
2023-05-08T22:28:46.657Z,11.48
2023-05-08T22:31:34.379Z,11.38
2023-05-08T22:34:22.475Z,11.46
2023-05-08T22:37:10.148Z,11.46
2023-05-08T22:39:57.979Z,11.32
2023-05-08T22:42:46.425Z,11.31
2023-05-08T22:45:34.223Z,11.12
2023-05-08T22:48:22.069Z,11.19
2023-05-08T22:51:10.346Z,11.29
2023-05-08T22:53:58.416Z,11.33
2023-05-08T22:56:49.140Z,11.20
2023-05-08T22:59:37.019Z,11.13
2023-05-08T23:02:24.737Z,11.02
2023-05-08T23:05:12.683Z,10.79
2023-05-08T23:08:04.127Z,10.87
2023-05-08T23:10:51.855Z,11.06
2023-05-08T23:13:39.486Z,11.17
2023-05-08T23:16:27.374Z,11.07
2023-05-08T23:19:15.058Z,10.92
2023-05-08T23:22:02.800Z,10.87
2023-05-08T23:24:50.442Z,10.67
2023-05-08T23:27:38.563Z,10.66
2023-05-08T23:30:26.930Z,10.77
2023-05-08T23:33:18.254Z,10.62
2023-05-08T23:36:06.444Z,10.48
2023-05-08T23:38:54.088Z,10.62
2023-05-08T23:41:41.811Z,10.54
2023-05-08T23:44:29.465Z,10.40
2023-05-08T23:47:19.489Z,10.65
2023-05-08T23:50:07.665Z,10.46
2023-05-08T23:52:55.397Z,10.66
2023-05-08T23:55:45.758Z,10.55
2023-05-08T23:58:33.445Z,10.54
